Huvudsida
METAR-TAF:

METAR-TAF

Flygplatser :

Sundsvall Timrå Airport

Sundsvall-Härnösand, Sverige

latitud: 62-32N, longitud: 017-27E, höjd: 4 m

Aktuellt väderrapport

Denna rapport gjordes för 44 minuter sedan, klockan 22:20 UTC
Vind 5 kt från nord, varierande mellan väst/nordväst och ost/nordost
Temperatur -6°C
Fuktighet 86%
Tryck 1013 hPa
Sikt: 3500 m
Få moln på en höjd av 1000 ft
Spridda moln på en höjd av 3000 ft
Mulet på en höjd av 3900 ft
snö

METAR: ESNN 232220Z 01005KT 290V060 3500 SN FEW010 SCT030 OVC039 M06/M08 Q1013 R16/79//34

Tid: 00:04 (23:04 UTC)

Väderprognos

Denna rapport gjordes för 1 timme och 49 minuter sedan, klockan 21:15 UTC
Prognos gäller från 23 kl. 21 UTC till 23 kl. 23 UTC
Vind 3 kt från nordväst
Sikt: 5000 m
Mulet på en höjd av 2500 ft
lätt snö
Sannolikhet 40%
från 23 kl. 21 UTC till 23 kl. 23 UTC
Sikt: 1200 m
på en höjd av 400 ft
snö

TAF: ESNN 232115Z 2321/2323 32003KT 5000 -SN OVC025 PROB40 2321/2323 1200 SN VV004

Aktuella väderrapporter och prognoser från 4000 flygplatser (METAR- och TAF-rapporter).

De tillgängliga stationerna syns som gula och röda prickar på kartan.

För musen över prickarna för att se namnen på stationerna.

Klicka sedan för att få väderrapporter och prognoser.

För att ändra kartan: Klicka på de gröna knapparna med ett svart kors på för att zooma in; den gröna knappen med ett streck på för att zooma ut; eller på de gröna pilarna för angränsande kartor.


METAR-TAF: